createdAt,value
2017-07-16T00:00:13.050Z,0
2017-07-16T00:01:13.040Z,0
2017-07-16T00:02:12.696Z,0
2017-07-16T00:03:12.721Z,0
2017-07-16T00:04:12.986Z,0
2017-07-16T00:05:12.670Z,0
2017-07-16T00:06:12.648Z,0
2017-07-16T00:07:12.940Z,0
2017-07-16T00:08:12.929Z,0
2017-07-16T00:09:12.920Z,0
2017-07-16T00:10:11.973Z,0
2017-07-16T00:11:12.877Z,0
2017-07-16T00:12:12.234Z,0
2017-07-16T00:13:12.217Z,0
2017-07-16T00:14:12.215Z,0
2017-07-16T00:15:12.506Z,0
2017-07-16T00:16:12.807Z,0
2017-07-16T00:17:12.798Z,0
2017-07-16T00:18:12.459Z,0
2017-07-16T00:19:12.756Z,0
2017-07-16T00:20:12.737Z,0
2017-07-16T00:21:12.722Z,0
2017-07-16T00:22:12.700Z,0
2017-07-16T00:23:12.067Z,0
2017-07-16T00:24:12.683Z,0
2017-07-16T00:25:12.664Z,0
2017-07-16T00:26:12.332Z,0
2017-07-16T00:27:12.310Z,0
2017-07-16T00:28:12.304Z,0
2017-07-16T00:29:12.591Z,0
2017-07-16T00:30:12.587Z,0
2017-07-16T00:31:12.252Z,0
2017-07-16T00:32:12.245Z,0
2017-07-16T00:33:12.535Z,0
2017-07-16T00:34:12.514Z,0
2017-07-16T00:35:12.566Z,0
2017-07-16T00:36:12.183Z,0
2017-07-16T00:37:12.159Z,0
2017-07-16T00:38:12.451Z,0
2017-07-16T00:39:12.447Z,0
2017-07-16T00:40:12.420Z,0
2017-07-16T00:41:12.402Z,0
2017-07-16T00:42:12.396Z,0
2017-07-16T00:43:11.756Z,0
2017-07-16T00:44:12.374Z,0
2017-07-16T00:45:12.347Z,0
2017-07-16T00:46:12.329Z,0
2017-07-16T00:47:12.336Z,0
2017-07-16T00:48:12.000Z,0
2017-07-16T00:49:11.984Z,0
2017-07-16T00:50:12.274Z,0
2017-07-16T00:51:12.267Z,0
2017-07-16T00:52:11.650Z,0
2017-07-16T00:53:12.221Z,0
2017-07-16T00:54:11.904Z,0
2017-07-16T00:55:12.193Z,0
2017-07-16T00:56:12.169Z,0
2017-07-16T00:57:11.539Z,0
2017-07-16T00:58:12.147Z,0
2017-07-16T00:59:12.142Z,0
2017-07-16T01:00:11.806Z,0
2017-07-16T01:01:11.800Z,0
2017-07-16T01:02:12.093Z,0
2017-07-16T01:03:11.757Z,0
2017-07-16T01:04:11.444Z,0
2017-07-16T01:05:12.054Z,0
2017-07-16T01:06:12.065Z,0
2017-07-16T01:07:11.716Z,0
2017-07-16T01:08:12.007Z,0
2017-07-16T01:09:11.985Z,0
2017-07-16T01:10:11.657Z,0
2017-07-16T01:11:11.637Z,0
2017-07-16T01:12:11.627Z,0
2017-07-16T01:13:11.922Z,0
2017-07-16T01:14:11.913Z,0
2017-07-16T01:15:11.574Z,0
2017-07-16T01:16:11.257Z,0
2017-07-16T01:17:11.856Z,0
2017-07-16T01:18:11.532Z,0
2017-07-16T01:19:11.217Z,0
2017-07-16T01:20:11.799Z,0
2017-07-16T01:21:11.797Z,0
2017-07-16T01:22:11.475Z,0
2017-07-16T01:23:11.464Z,0
2017-07-16T01:24:11.429Z,0
2017-07-16T01:25:11.734Z,0
2017-07-16T01:26:11.099Z,0
2017-07-16T01:27:11.087Z,0
2017-07-16T01:28:11.370Z,0
2017-07-16T01:29:11.360Z,0
2017-07-16T01:30:11.355Z,0
2017-07-16T01:31:11.632Z,0
2017-07-16T01:32:11.617Z,0
2017-07-16T01:33:11.614Z,0
2017-07-16T01:34:11.282Z,0
2017-07-16T01:35:11.266Z,0
2017-07-16T01:36:11.548Z,0
2017-07-16T01:37:11.227Z,0
2017-07-16T01:38:11.527Z,0
2017-07-16T01:39:11.503Z,0
2017-07-16T01:40:11.186Z,0
2017-07-16T01:41:11.478Z,0
2017-07-16T01:42:11.472Z,0
2017-07-16T01:43:11.457Z,0
2017-07-16T01:44:11.426Z,0
2017-07-16T01:45:11.411Z,0
2017-07-16T01:46:11.398Z,0
2017-07-16T01:47:11.383Z,0
2017-07-16T01:48:10.743Z,0
2017-07-16T01:49:11.357Z,0
2017-07-16T01:50:11.350Z,0
2017-07-16T01:51:11.005Z,0
2017-07-16T01:52:11.323Z,0
2017-07-16T01:53:10.972Z,0
2017-07-16T01:54:11.278Z,0
2017-07-16T01:55:11.289Z,0
2017-07-16T01:56:11.244Z,0
2017-07-16T01:57:11.222Z,0
2017-07-16T01:58:11.253Z,0
2017-07-16T01:59:11.192Z,0
2017-07-16T02:00:11.188Z,0
2017-07-16T02:01:10.842Z,0
2017-07-16T02:02:10.836Z,0
2017-07-16T02:03:11.124Z,0
2017-07-16T02:04:11.115Z,0
2017-07-16T02:05:10.788Z,0
2017-07-16T02:06:10.770Z,0
2017-07-16T02:07:11.064Z,0
2017-07-16T02:08:10.742Z,0
2017-07-16T02:09:10.725Z,0
2017-07-16T02:10:10.700Z,0
2017-07-16T02:11:10.686Z,0
2017-07-16T02:12:10.989Z,0
2017-07-16T02:13:10.343Z,0
2017-07-16T02:14:10.643Z,0
2017-07-16T02:15:10.633Z,0
2017-07-16T02:16:10.619Z,0
2017-07-16T02:17:10.600Z,0
2017-07-16T02:18:10.267Z,0
2017-07-16T02:19:10.259Z,0
2017-07-16T02:20:10.864Z,0
2017-07-16T02:21:10.537Z,0
2017-07-16T02:22:10.204Z,0
2017-07-16T02:23:10.190Z,0
2017-07-16T02:24:10.791Z,0
2017-07-16T02:25:10.781Z,0
2017-07-16T02:26:10.454Z,0
2017-07-16T02:27:10.441Z,0
2017-07-16T02:28:10.422Z,0
2017-07-16T02:29:10.720Z,0
2017-07-16T02:30:10.397Z,0
2017-07-16T02:31:10.687Z,0
2017-07-16T02:32:10.662Z,0
2017-07-16T02:33:10.333Z,0
2017-07-16T02:34:10.331Z,0
2017-07-16T02:35:10.313Z,0
2017-07-16T02:36:10.293Z,0
2017-07-16T02:37:10.283Z,0
2017-07-16T02:38:10.265Z,0
2017-07-16T02:39:10.254Z,0
2017-07-16T02:40:09.925Z,0
2017-07-16T02:41:10.534Z,0
2017-07-16T02:42:10.199Z,0
2017-07-16T02:43:10.494Z,0
2017-07-16T02:44:10.170Z,0
2017-07-16T02:45:10.468Z,0
2017-07-16T02:46:10.138Z,0
2017-07-16T02:47:10.123Z,0
2017-07-16T02:48:09.793Z,0
2017-07-16T02:49:10.081Z,0
2017-07-16T02:50:10.388Z,0
2017-07-16T02:51:09.746Z,0
2017-07-16T02:52:10.351Z,0
2017-07-16T02:53:10.335Z,0
2017-07-16T02:54:10.311Z,0
2017-07-16T02:55:10.003Z,0
2017-07-16T02:56:10.292Z,0
2017-07-16T02:57:10.272Z,0
2017-07-16T02:58:10.263Z,0
2017-07-16T02:59:10.241Z,0
2017-07-16T03:00:09.922Z,4
2017-07-16T03:01:10.213Z,0
2017-07-16T03:02:09.882Z,0
2017-07-16T03:03:10.170Z,4
2017-07-16T03:04:10.166Z,4
2017-07-16T03:05:09.864Z,4
2017-07-16T03:06:10.123Z,8
2017-07-16T03:07:10.110Z,8
2017-07-16T03:08:10.118Z,8
2017-07-16T03:09:10.085Z,12
2017-07-16T03:10:09.758Z,12
2017-07-16T03:11:09.739Z,16
2017-07-16T03:12:09.416Z,16
2017-07-16T03:13:10.023Z,20
2017-07-16T03:14:09.691Z,24
2017-07-16T03:15:09.679Z,32
2017-07-16T03:16:09.979Z,40
2017-07-16T03:17:09.645Z,44
2017-07-16T03:18:09.316Z,52
2017-07-16T03:19:09.923Z,56
2017-07-16T03:20:09.589Z,68
2017-07-16T03:21:09.570Z,72
2017-07-16T03:22:09.560Z,84
2017-07-16T03:23:09.861Z,96
2017-07-16T03:24:09.530Z,112
2017-07-16T03:25:09.828Z,124
2017-07-16T03:26:09.814Z,144
2017-07-16T03:27:09.781Z,172
2017-07-16T03:28:09.772Z,196
2017-07-16T03:29:09.457Z,228
2017-07-16T03:30:08.810Z,252
2017-07-16T03:31:09.725Z,280
2017-07-16T03:32:09.718Z,300
2017-07-16T03:33:09.376Z,328
2017-07-16T03:34:09.365Z,372
2017-07-16T03:35:09.034Z,416
2017-07-16T03:36:09.327Z,460
2017-07-16T03:37:09.312Z,504
2017-07-16T03:38:09.293Z,528
2017-07-16T03:39:09.280Z,576
2017-07-16T03:40:09.269Z,608
2017-07-16T03:41:09.550Z,648
2017-07-16T03:42:09.551Z,696
2017-07-16T03:43:09.535Z,748
2017-07-16T03:44:09.519Z,796
2017-07-16T03:45:08.880Z,836
2017-07-16T03:46:09.483Z,908
2017-07-16T03:47:09.147Z,968
2017-07-16T03:48:09.132Z,1008
2017-07-16T03:49:09.435Z,1072
2017-07-16T03:50:09.405Z,1140
2017-07-16T03:51:09.086Z,1296
2017-07-16T03:52:09.380Z,1292
2017-07-16T03:53:08.735Z,1224
2017-07-16T03:54:09.027Z,1184
2017-07-16T03:55:09.017Z,1216
2017-07-16T03:56:09.001Z,1284
2017-07-16T03:57:09.292Z,1376
2017-07-16T03:58:08.967Z,1392
2017-07-16T03:59:08.324Z,1400
2017-07-16T04:00:08.629Z,1460
2017-07-16T04:01:08.608Z,1476
2017-07-16T04:02:09.208Z,1504
2017-07-16T04:03:09.195Z,1524
2017-07-16T04:04:09.188Z,1532
2017-07-16T04:05:08.548Z,1488
2017-07-16T04:06:08.836Z,1544
2017-07-16T04:07:08.825Z,1688
2017-07-16T04:08:09.121Z,1744
2017-07-16T04:09:08.790Z,1784
2017-07-16T04:10:08.451Z,1976
2017-07-16T04:11:09.061Z,2080
2017-07-16T04:12:09.052Z,2116
2017-07-16T04:13:08.725Z,2172
2017-07-16T04:14:09.013Z,2212
2017-07-16T04:15:09.000Z,2256
2017-07-16T04:16:08.673Z,2272
2017-07-16T04:17:08.701Z,2132
2017-07-16T04:18:08.951Z,2068
2017-07-16T04:19:08.627Z,2036
2017-07-16T04:20:08.610Z,2116
2017-07-16T04:21:08.612Z,2204
2017-07-16T04:22:08.576Z,2228
2017-07-16T04:23:08.557Z,2400
2017-07-16T04:24:08.540Z,2612
2017-07-16T04:25:08.217Z,2876
2017-07-16T04:26:08.191Z,2768
2017-07-16T04:27:08.795Z,2936
2017-07-16T04:28:08.792Z,3216
2017-07-16T04:29:08.758Z,3368
2017-07-16T04:30:08.754Z,3500
2017-07-16T04:31:08.745Z,3532
2017-07-16T04:32:08.404Z,3476
2017-07-16T04:33:08.714Z,3480
2017-07-16T04:34:08.673Z,3408
2017-07-16T04:35:08.041Z,3192
2017-07-16T04:36:08.646Z,3172
2017-07-16T04:37:08.624Z,3288
2017-07-16T04:38:08.606Z,3508
2017-07-16T04:39:07.984Z,3880
2017-07-16T04:40:08.277Z,3732
2017-07-16T04:41:08.567Z,3872
2017-07-16T04:42:08.561Z,4008
2017-07-16T04:43:08.541Z,4092
2017-07-16T04:44:08.195Z,4064
2017-07-16T04:45:08.499Z,4100
2017-07-16T04:46:08.479Z,4208
2017-07-16T04:47:07.852Z,4132
2017-07-16T04:48:08.455Z,4224
2017-07-16T04:49:08.133Z,4360
2017-07-16T04:50:08.102Z,4516
2017-07-16T04:51:08.090Z,4860
2017-07-16T04:52:08.081Z,5332
2017-07-16T04:53:08.053Z,5608
2017-07-16T04:54:07.733Z,5808
2017-07-16T04:55:08.326Z,5756
2017-07-16T04:56:08.004Z,6084
2017-07-16T04:57:07.995Z,6200
2017-07-16T04:58:08.287Z,6192
2017-07-16T04:59:08.270Z,5792
2017-07-16T05:00:08.254Z,5628
2017-07-16T05:01:08.238Z,5688
2017-07-16T05:02:07.904Z,5760
2017-07-16T05:03:08.197Z,5516
2017-07-16T05:04:08.182Z,5564
2017-07-16T05:05:07.865Z,5740
2017-07-16T05:06:08.159Z,6248
2017-07-16T05:07:08.125Z,6684
2017-07-16T05:08:07.808Z,6420
2017-07-16T05:09:07.791Z,6572
2017-07-16T05:10:07.467Z,7112
2017-07-16T05:11:07.763Z,7628
2017-07-16T05:12:07.746Z,8260
2017-07-16T05:13:08.033Z,8644
2017-07-16T05:14:07.717Z,8548
2017-07-16T05:15:08.002Z,8400
2017-07-16T05:16:07.362Z,9088
2017-07-16T05:17:07.981Z,10240
2017-07-16T05:18:07.343Z,10176
2017-07-16T05:19:07.635Z,9728
2017-07-16T05:20:07.614Z,9796
2017-07-16T05:21:07.295Z,9784
2017-07-16T05:22:07.279Z,10512
2017-07-16T05:23:07.555Z,11252
2017-07-16T05:24:07.231Z,10872
2017-07-16T05:25:07.841Z,11008
2017-07-16T05:26:07.522Z,10644
2017-07-16T05:27:07.498Z,10832
2017-07-16T05:28:07.792Z,10284
2017-07-16T05:29:07.777Z,10936
2017-07-16T05:30:07.142Z,9988
2017-07-16T05:31:07.752Z,9356
2017-07-16T05:32:07.424Z,11568
2017-07-16T05:33:07.724Z,12232
2017-07-16T05:34:07.079Z,11856
2017-07-16T05:35:07.364Z,10592
2017-07-16T05:36:07.356Z,10648
2017-07-16T05:37:07.650Z,11036
2017-07-16T05:38:07.321Z,12456
2017-07-16T05:39:07.004Z,12584
2017-07-16T05:40:07.288Z,12456
2017-07-16T05:41:07.281Z,12512
2017-07-16T05:42:07.251Z,12880
2017-07-16T05:43:07.547Z,13568
2017-07-16T05:44:07.230Z,14944
2017-07-16T05:45:07.211Z,15400
2017-07-16T05:46:07.186Z,14800
2017-07-16T05:47:07.178Z,15348
2017-07-16T05:48:06.846Z,14916
2017-07-16T05:49:06.827Z,14824
2017-07-16T05:50:06.503Z,12512
2017-07-16T05:51:07.116Z,13056
2017-07-16T05:52:06.786Z,13228
2017-07-16T05:53:06.767Z,13908
2017-07-16T05:54:07.374Z,14720
2017-07-16T05:55:06.728Z,13788
2017-07-16T05:56:07.047Z,13120
2017-07-16T05:57:07.009Z,14124
2017-07-16T05:58:07.312Z,15268
2017-07-16T05:59:07.298Z,14124
2017-07-16T06:00:06.969Z,16256
2017-07-16T06:01:06.644Z,17168
2017-07-16T06:02:07.262Z,16848
2017-07-16T06:03:07.226Z,15408
2017-07-16T06:04:07.207Z,16280
2017-07-16T06:05:06.890Z,18368
2017-07-16T06:06:07.184Z,18496
2017-07-16T06:07:06.851Z,19296
2017-07-16T06:08:06.848Z,20736
2017-07-16T06:09:06.515Z,21632
2017-07-16T06:10:06.840Z,27648
2017-07-16T06:11:06.787Z,26976
2017-07-16T06:12:06.776Z,26624
2017-07-16T06:13:06.132Z,26144
2017-07-16T06:14:06.742Z,23616
2017-07-16T06:15:06.732Z,26560
2017-07-16T06:16:07.021Z,29088
2017-07-16T06:17:07.001Z,28480
2017-07-16T06:18:06.678Z,26848
2017-07-16T06:19:06.970Z,29184
2017-07-16T06:20:06.325Z,29280
2017-07-16T06:21:06.954Z,24768
2017-07-16T06:22:06.616Z,24800
2017-07-16T06:23:06.597Z,21632
2017-07-16T06:24:06.587Z,23840
2017-07-16T06:25:06.262Z,24384
2017-07-16T06:26:06.859Z,22432
2017-07-16T06:27:06.230Z,26464
2017-07-16T06:28:06.518Z,28352
2017-07-16T06:29:06.493Z,31168
2017-07-16T06:30:06.494Z,31072
2017-07-16T06:31:06.780Z,26624
2017-07-16T06:32:06.454Z,29184
2017-07-16T06:33:06.123Z,29920
2017-07-16T06:34:06.107Z,26752
2017-07-16T06:35:06.718Z,28032
2017-07-16T06:36:06.382Z,32544
2017-07-16T06:37:06.375Z,30304
2017-07-16T06:38:06.351Z,32160
2017-07-16T06:39:06.338Z,39296
2017-07-16T06:40:06.326Z,40480
2017-07-16T06:41:06.605Z,33248
2017-07-16T06:42:06.594Z,30144
2017-07-16T06:43:06.581Z,26080
2017-07-16T06:44:06.564Z,25984
2017-07-16T06:45:06.246Z,24320
2017-07-16T06:46:05.601Z,23840
2017-07-16T06:47:06.200Z,23104
2017-07-16T06:48:06.487Z,22368
2017-07-16T06:49:05.860Z,25280
2017-07-16T06:50:06.165Z,27360
2017-07-16T06:51:05.827Z,28544
2017-07-16T06:52:06.430Z,26272
2017-07-16T06:53:06.107Z,25088
2017-07-16T06:54:06.451Z,25568
2017-07-16T06:55:06.402Z,26496
2017-07-16T06:56:06.376Z,29568
2017-07-16T06:57:06.350Z,28064
2017-07-16T06:58:06.346Z,29056
2017-07-16T06:59:05.716Z,29696
2017-07-16T07:00:06.301Z,31456
2017-07-16T07:01:05.992Z,29856
2017-07-16T07:02:06.286Z,32384
2017-07-16T07:03:05.641Z,31712
2017-07-16T07:04:06.254Z,35424
2017-07-16T07:05:05.615Z,36512
2017-07-16T07:06:05.938Z,30912
2017-07-16T07:07:05.580Z,30496
2017-07-16T07:08:06.181Z,36032
2017-07-16T07:09:05.868Z,38592
2017-07-16T07:10:05.228Z,37088
2017-07-16T07:11:05.847Z,41632
2017-07-16T07:12:05.816Z,39392
2017-07-16T07:13:06.130Z,33216
2017-07-16T07:14:05.794Z,49856
2017-07-16T07:15:05.465Z,50272
2017-07-16T07:16:05.452Z,62336
2017-07-16T07:17:05.440Z,57440
2017-07-16T07:18:05.422Z,51776
2017-07-16T07:19:05.417Z,41408
2017-07-16T07:20:06.012Z,37856
2017-07-16T07:21:05.382Z,54304
2017-07-16T07:22:06.025Z,59040
2017-07-16T07:23:05.368Z,49920
2017-07-16T07:24:05.954Z,99648
2017-07-16T07:25:05.327Z,71776
2017-07-16T07:26:05.314Z,71008
2017-07-16T07:27:05.612Z,93312
2017-07-16T07:28:05.285Z,85408
2017-07-16T07:29:05.593Z,94112
2017-07-16T07:30:05.873Z,65056
2017-07-16T07:31:05.548Z,61856
2017-07-16T07:32:05.843Z,41568
2017-07-16T07:33:05.540Z,37344
2017-07-16T07:34:05.517Z,40864
2017-07-16T07:35:04.880Z,53152
2017-07-16T07:36:05.496Z,50912
2017-07-16T07:37:05.479Z,64544
2017-07-16T07:38:05.459Z,92288
2017-07-16T07:39:05.755Z,96768
2017-07-16T07:40:05.451Z,67392
2017-07-16T07:41:05.423Z,65920
2017-07-16T07:42:05.417Z,57472
2017-07-16T07:43:05.401Z,56576
2017-07-16T07:44:05.392Z,45696
2017-07-16T07:45:05.370Z,88352
2017-07-16T07:46:05.367Z,113568
2017-07-16T07:47:05.040Z,70944
2017-07-16T07:48:05.346Z,79072
2017-07-16T07:49:05.323Z,96320
2017-07-16T07:50:05.001Z,78176
2017-07-16T07:51:05.299Z,91136
2017-07-16T07:52:05.596Z,43968
2017-07-16T07:53:05.283Z,48480
2017-07-16T07:54:05.263Z,54336
2017-07-16T07:55:04.943Z,87648
2017-07-16T07:56:05.237Z,27136
2017-07-16T07:57:05.227Z,24192
2017-07-16T07:58:04.911Z,35360
2017-07-16T07:59:04.891Z,48160
2017-07-16T08:00:04.871Z,38240
2017-07-16T08:01:05.184Z,30912
2017-07-16T08:02:04.864Z,29120
2017-07-16T08:03:05.464Z,28000
2017-07-16T08:04:05.438Z,34560
2017-07-16T08:05:05.130Z,34400
2017-07-16T08:06:05.110Z,33792
2017-07-16T08:07:05.112Z,31808
2017-07-16T08:08:05.087Z,27904
2017-07-16T08:09:05.393Z,23424
2017-07-16T08:10:05.068Z,20864
2017-07-16T08:11:05.364Z,26432
2017-07-16T08:12:05.027Z,30304
2017-07-16T08:13:04.409Z,27968
2017-07-16T08:14:04.693Z,34176
2017-07-16T08:15:04.994Z,38816
2017-07-16T08:16:05.303Z,34688
2017-07-16T08:17:04.971Z,26080
2017-07-16T08:18:04.961Z,24640
2017-07-16T08:19:04.634Z,27008
2017-07-16T08:20:04.947Z,32864
2017-07-16T08:21:04.618Z,36896
2017-07-16T08:22:04.591Z,44800
2017-07-16T08:23:04.895Z,33312
2017-07-16T08:24:05.176Z,33696
2017-07-16T08:25:04.878Z,38784
2017-07-16T08:26:04.860Z,46592
2017-07-16T08:27:04.852Z,56768
2017-07-16T08:28:04.524Z,92352
2017-07-16T08:29:04.803Z,109600
2017-07-16T08:30:04.802Z,59680
2017-07-16T08:31:04.475Z,37952
2017-07-16T08:32:04.777Z,115168
2017-07-16T08:33:05.068Z,130304
2017-07-16T08:34:04.746Z,139904
2017-07-16T08:35:04.427Z,107552
2017-07-16T08:36:04.418Z,108736
2017-07-16T08:37:04.716Z,108128
2017-07-16T08:38:04.394Z,124640
2017-07-16T08:39:04.693Z,131744
2017-07-16T08:40:04.370Z,122592
2017-07-16T08:41:04.660Z,108000
2017-07-16T08:42:05.006Z,87520
2017-07-16T08:43:04.949Z,122880
2017-07-16T08:44:04.619Z,106368
2017-07-16T08:45:04.621Z,89664
2017-07-16T08:46:04.968Z,136608
2017-07-16T08:47:04.901Z,63424
2017-07-16T08:48:04.267Z,63072
2017-07-16T08:49:04.885Z,59040
2017-07-16T08:50:04.868Z,40224
2017-07-16T08:51:04.552Z,40352
2017-07-16T08:52:04.846Z,47008
2017-07-16T08:53:04.846Z,46368
2017-07-16T08:54:04.519Z,45184
2017-07-16T08:55:04.814Z,39552
2017-07-16T08:56:04.807Z,37344
2017-07-16T08:57:04.780Z,34688
2017-07-16T08:58:04.789Z,32320
2017-07-16T08:59:04.468Z,27744
2017-07-16T09:00:04.447Z,28096
2017-07-16T09:01:04.440Z,28608
2017-07-16T09:02:04.424Z,107328
2017-07-16T09:03:04.748Z,126496
2017-07-16T09:04:04.723Z,142272
2017-07-16T09:05:04.701Z,104352
2017-07-16T09:06:04.379Z,63296
2017-07-16T09:07:04.363Z,132480
2017-07-16T09:08:04.681Z,144768
2017-07-16T09:09:04.664Z,66688
2017-07-16T09:10:04.336Z,67392
2017-07-16T09:11:04.629Z,70624
2017-07-16T09:12:04.314Z,51680
2017-07-16T09:13:04.042Z,63488
2017-07-16T09:14:04.286Z,42624
2017-07-16T09:15:04.277Z,35872
2017-07-16T09:16:03.949Z,29024
2017-07-16T09:17:04.566Z,31840
2017-07-16T09:18:04.545Z,45664
2017-07-16T09:19:04.226Z,94880
2017-07-16T09:20:04.526Z,107136
2017-07-16T09:21:04.218Z,67968
2017-07-16T09:22:04.517Z,99104
2017-07-16T09:23:03.865Z,54176
2017-07-16T09:24:04.488Z,118880
2017-07-16T09:25:04.164Z,152320
2017-07-16T09:26:04.465Z,73312
2017-07-16T09:27:03.828Z,95136
2017-07-16T09:28:04.438Z,47008
2017-07-16T09:29:04.133Z,52640
2017-07-16T09:30:03.789Z,37888
2017-07-16T09:31:04.403Z,35488
2017-07-16T09:32:04.087Z,33632
2017-07-16T09:33:03.442Z,28896
2017-07-16T09:34:04.074Z,24000
2017-07-16T09:35:04.352Z,30208
2017-07-16T09:36:03.734Z,39808
2017-07-16T09:37:04.343Z,115712
2017-07-16T09:38:04.010Z,103584
2017-07-16T09:39:04.001Z,103040
2017-07-16T09:40:04.303Z,102272
2017-07-16T09:41:03.670Z,103360
2017-07-16T09:42:04.281Z,105184
2017-07-16T09:43:04.264Z,78976
2017-07-16T09:44:04.250Z,105984
2017-07-16T09:45:04.248Z,104896
2017-07-16T09:46:04.229Z,112640
2017-07-16T09:47:04.220Z,118400
2017-07-16T09:48:03.911Z,51136
2017-07-16T09:49:04.194Z,88896
2017-07-16T09:50:03.874Z,90144
2017-07-16T09:51:04.182Z,30240
2017-07-16T09:52:03.853Z,29216
2017-07-16T09:53:04.161Z,31264
2017-07-16T09:54:03.835Z,31520
2017-07-16T09:55:03.828Z,93600
2017-07-16T09:56:03.813Z,118432
2017-07-16T09:57:04.116Z,114304
2017-07-16T09:58:03.480Z,118560
2017-07-16T09:59:04.081Z,47648
2017-07-16T10:00:04.066Z,44544
2017-07-16T10:01:03.742Z,67584
2017-07-16T10:02:04.049Z,45888
2017-07-16T10:03:04.046Z,80032
2017-07-16T10:04:03.716Z,126592
2017-07-16T10:05:03.704Z,131968
2017-07-16T10:06:03.689Z,79200
2017-07-16T10:07:03.999Z,48928
2017-07-16T10:08:03.685Z,35936
2017-07-16T10:09:03.984Z,32512
2017-07-16T10:10:03.657Z,39968
2017-07-16T10:11:03.641Z,74784
2017-07-16T10:12:03.629Z,54752
2017-07-16T10:13:03.607Z,39872
2017-07-16T10:14:03.611Z,35808
2017-07-16T10:15:03.287Z,47296
2017-07-16T10:16:03.018Z,104928
2017-07-16T10:17:03.894Z,138944
2017-07-16T10:18:03.248Z,153760
2017-07-16T10:19:03.556Z,79040
2017-07-16T10:20:03.539Z,84960
2017-07-16T10:21:03.844Z,142080
2017-07-16T10:22:03.827Z,72928
2017-07-16T10:23:03.812Z,145696
2017-07-16T10:24:03.503Z,145600
2017-07-16T10:25:03.786Z,38304
2017-07-16T10:26:03.171Z,59904
2017-07-16T10:27:03.461Z,39776
2017-07-16T10:28:03.765Z,156928
2017-07-16T10:29:03.135Z,76544
2017-07-16T10:30:03.754Z,169984
2017-07-16T10:31:03.729Z,165536
2017-07-16T10:32:03.412Z,154080
2017-07-16T10:33:03.716Z,159488
2017-07-16T10:34:03.396Z,163872
2017-07-16T10:35:03.688Z,89056
2017-07-16T10:36:03.377Z,160864
2017-07-16T10:37:03.674Z,161248
2017-07-16T10:38:03.661Z,42272
2017-07-16T10:39:03.660Z,55872
2017-07-16T10:40:03.337Z,46176
2017-07-16T10:41:03.325Z,46080
2017-07-16T10:42:03.631Z,44096
2017-07-16T10:43:03.822Z,41792
2017-07-16T10:44:03.832Z,39328
2017-07-16T10:45:02.978Z,37952
2017-07-16T10:46:03.581Z,37152
2017-07-16T10:47:03.257Z,38720
2017-07-16T10:48:03.265Z,174080
2017-07-16T10:49:02.937Z,145856
2017-07-16T10:50:03.554Z,151840
2017-07-16T10:51:03.545Z,147488
2017-07-16T10:52:03.210Z,118112
2017-07-16T10:53:03.512Z,98112
2017-07-16T10:54:03.502Z,114976
2017-07-16T10:55:03.498Z,83072
2017-07-16T10:56:03.486Z,154816
2017-07-16T10:57:03.485Z,53024
2017-07-16T10:58:03.158Z,147264
2017-07-16T10:59:03.132Z,146624
2017-07-16T11:00:03.448Z,57152
2017-07-16T11:01:02.814Z,138400
2017-07-16T11:02:03.431Z,133696
2017-07-16T11:03:03.095Z,129568
2017-07-16T11:04:03.097Z,132064
2017-07-16T11:05:03.424Z,140544
2017-07-16T11:06:03.387Z,129280
2017-07-16T11:07:03.065Z,95584
2017-07-16T11:08:03.060Z,110624
2017-07-16T11:09:02.744Z,164992
2017-07-16T11:10:03.350Z,78304
2017-07-16T11:11:03.334Z,150816
2017-07-16T11:12:03.329Z,139840
2017-07-16T11:13:03.314Z,134496
2017-07-16T11:14:03.303Z,131232
2017-07-16T11:15:03.498Z,129952
2017-07-16T11:16:03.291Z,128672
2017-07-16T11:17:02.966Z,128576
2017-07-16T11:18:02.331Z,129952
2017-07-16T11:19:02.336Z,129056
2017-07-16T11:20:03.245Z,130016
2017-07-16T11:21:03.452Z,134016
2017-07-16T11:22:02.925Z,136064
2017-07-16T11:23:02.923Z,135488
2017-07-16T11:24:02.901Z,134208
2017-07-16T11:25:03.404Z,116000
2017-07-16T11:26:02.888Z,119008
2017-07-16T11:27:02.562Z,136384
2017-07-16T11:28:02.909Z,122784
2017-07-16T11:29:02.870Z,135008
2017-07-16T11:30:02.875Z,139040
2017-07-16T11:31:03.176Z,41088
2017-07-16T11:32:02.512Z,31264
2017-07-16T11:33:02.809Z,32608
2017-07-16T11:34:03.119Z,34624
2017-07-16T11:35:02.802Z,46720
2017-07-16T11:36:02.486Z,147616
2017-07-16T11:37:03.094Z,139264
2017-07-16T11:38:03.089Z,143648
2017-07-16T11:39:02.759Z,142912
2017-07-16T11:40:03.062Z,139584
2017-07-16T11:41:02.774Z,134144
2017-07-16T11:42:03.046Z,128032
2017-07-16T11:43:02.724Z,126112
2017-07-16T11:44:03.031Z,123712
2017-07-16T11:45:03.014Z,124384
2017-07-16T11:46:02.387Z,127520
2017-07-16T11:47:03.003Z,141792
2017-07-16T11:48:02.694Z,50240
2017-07-16T11:49:02.680Z,46208
2017-07-16T11:50:02.958Z,49248
2017-07-16T11:51:02.963Z,44704
2017-07-16T11:52:02.656Z,55104
2017-07-16T11:53:02.841Z,54368
2017-07-16T11:54:02.632Z,48864
2017-07-16T11:55:02.304Z,37504
2017-07-16T11:56:02.928Z,34016
2017-07-16T11:57:02.611Z,38880
2017-07-16T11:58:02.934Z,47328
2017-07-16T11:59:03.105Z,54336
2017-07-16T12:00:02.882Z,145440
2017-07-16T12:01:02.871Z,48736
2017-07-16T12:02:02.555Z,64992
2017-07-16T12:03:02.565Z,58176
2017-07-16T12:04:02.541Z,67232
2017-07-16T12:05:02.536Z,104224
2017-07-16T12:06:02.538Z,73152
2017-07-16T12:07:02.822Z,75392
2017-07-16T12:08:02.512Z,175808
2017-07-16T12:09:02.494Z,136704
2017-07-16T12:10:02.796Z,105504
2017-07-16T12:11:02.481Z,88992
2017-07-16T12:12:02.471Z,100832
2017-07-16T12:13:02.146Z,89024
2017-07-16T12:14:02.450Z,90272
2017-07-16T12:15:02.439Z,149280
2017-07-16T12:16:02.437Z,137568
2017-07-16T12:17:02.741Z,139904
2017-07-16T12:18:02.418Z,134944
2017-07-16T12:19:02.413Z,135872
2017-07-16T12:20:02.402Z,81408
2017-07-16T12:21:02.101Z,53120
2017-07-16T12:22:02.682Z,63328
2017-07-16T12:23:02.371Z,90208
2017-07-16T12:24:02.678Z,65952
2017-07-16T12:25:02.352Z,61760
2017-07-16T12:26:02.361Z,62624
2017-07-16T12:27:02.357Z,90560
2017-07-16T12:28:02.646Z,63488
2017-07-16T12:29:02.639Z,52736
2017-07-16T12:30:02.623Z,66112
2017-07-16T12:31:02.629Z,41568
2017-07-16T12:32:02.307Z,41952
2017-07-16T12:33:02.297Z,59616
2017-07-16T12:34:01.975Z,126816
2017-07-16T12:35:02.278Z,121056
2017-07-16T12:36:02.283Z,122016
2017-07-16T12:37:02.481Z,120160
2017-07-16T12:38:16.188Z,132960
2017-07-16T12:39:02.245Z,64224
2017-07-16T12:40:01.928Z,77568
2017-07-16T12:41:02.217Z,47648
2017-07-16T12:42:02.727Z,32096
2017-07-16T12:43:02.203Z,33056
2017-07-16T12:44:02.506Z,38272
2017-07-16T12:45:02.189Z,40448
2017-07-16T12:46:01.871Z,34112
2017-07-16T12:47:02.469Z,30944
2017-07-16T12:48:02.478Z,31392
2017-07-16T12:49:02.475Z,37440
2017-07-16T12:50:02.138Z,42080
2017-07-16T12:51:02.137Z,39392
2017-07-16T12:52:02.429Z,58496
2017-07-16T12:53:02.114Z,94848
2017-07-16T12:54:01.803Z,34112
2017-07-16T12:55:02.089Z,41184
2017-07-16T12:56:02.081Z,64928
2017-07-16T12:57:02.393Z,122304
2017-07-16T12:58:02.077Z,77504
2017-07-16T12:59:02.365Z,50112
2017-07-16T13:00:02.361Z,146944
2017-07-16T13:01:02.352Z,152832
2017-07-16T13:02:02.344Z,159072
2017-07-16T13:03:02.336Z,156800
2017-07-16T13:04:02.330Z,55328
2017-07-16T13:05:01.995Z,43584
2017-07-16T13:06:01.985Z,41344
2017-07-16T13:07:01.975Z,47904
2017-07-16T13:08:01.978Z,38144
2017-07-16T13:09:01.961Z,38176
2017-07-16T13:10:02.181Z,38752
2017-07-16T13:11:02.247Z,39296
2017-07-16T13:12:02.259Z,47008
2017-07-16T13:13:01.937Z,55328
2017-07-16T13:14:01.921Z,48320
2017-07-16T13:15:02.138Z,40224
2017-07-16T13:16:15.847Z,51520
2017-07-16T13:17:02.197Z,106752
2017-07-16T13:18:01.886Z,35328
2017-07-16T13:19:01.557Z,36768